createdAt,value
2023-04-04T00:00:03.061Z,73.4
2023-04-04T00:03:03.410Z,73.4
2023-04-04T00:06:03.224Z,73.4
2023-04-04T00:09:03.006Z,73.4
2023-04-04T00:12:03.056Z,73.4
2023-04-04T00:15:02.995Z,73.4
2023-04-04T00:18:03.031Z,73.4
2023-04-04T00:21:03.045Z,73.4
2023-04-04T00:24:02.961Z,73.4
2023-04-04T00:27:02.942Z,73.4
2023-04-04T00:30:03.065Z,73.4
2023-04-04T00:33:03.280Z,73.8
2023-04-04T00:36:03.236Z,73.8
2023-04-04T00:39:02.965Z,73.8
2023-04-04T00:42:02.995Z,73.8
2023-04-04T00:45:03.016Z,73.8
2023-04-04T00:48:03.179Z,73.8
2023-04-04T00:51:02.986Z,73.8
2023-04-04T00:54:02.981Z,73.8
2023-04-04T00:57:03.018Z,73.8
2023-04-04T01:00:03.107Z,73.8
2023-04-04T01:03:03.103Z,73.8
2023-04-04T01:06:03.004Z,73.8
2023-04-04T01:09:02.992Z,73.8
2023-04-04T01:12:02.967Z,73.8
2023-04-04T01:15:02.945Z,73.8
2023-04-04T01:18:03.082Z,73.8
2023-04-04T01:21:03.002Z,73.8
2023-04-04T01:24:02.996Z,73.8
2023-04-04T01:27:03.006Z,73.8
2023-04-04T01:30:03.067Z,73.8
2023-04-04T01:33:03.041Z,73.8
2023-04-04T01:36:03.308Z,73.8
2023-04-04T01:39:03.012Z,73.8
2023-04-04T01:42:02.999Z,73.8
2023-04-04T01:45:03.024Z,73.8
2023-04-04T01:48:03.148Z,73.8
2023-04-04T01:51:03.010Z,73.8
2023-04-04T01:54:03.012Z,73.8
2023-04-04T01:57:03.032Z,73.8
2023-04-04T02:00:03.066Z,73.8
2023-04-04T02:03:03.100Z,73.8
2023-04-04T02:06:03.012Z,73.8
2023-04-04T02:09:03.064Z,73.8
2023-04-04T02:12:03.083Z,75.2
2023-04-04T02:15:03.027Z,75.2
2023-04-04T02:18:04.702Z,75.2
2023-04-04T02:21:03.006Z,75.2
2023-04-04T02:24:03.118Z,75.2
2023-04-04T02:27:02.985Z,75.2
2023-04-04T02:30:03.035Z,75.2
2023-04-04T02:33:03.127Z,75.2
2023-04-04T02:36:03.172Z,75.2
2023-04-04T02:39:03.281Z,74.8
2023-04-04T02:42:02.989Z,74.8
2023-04-04T02:45:02.976Z,74.8
2023-04-04T02:48:03.151Z,74.8
2023-04-04T02:51:03.024Z,74.8
2023-04-04T02:54:03.050Z,74.8
2023-04-04T02:57:02.975Z,74.8
2023-04-04T03:00:03.054Z,74.8
2023-04-04T03:03:03.447Z,74.8
2023-04-04T03:06:03.031Z,74.8
2023-04-04T03:09:03.061Z,74.4
2023-04-04T03:12:03.004Z,74.4
2023-04-04T03:15:02.982Z,74.4
2023-04-04T03:18:03.045Z,74.4
2023-04-04T03:21:02.998Z,74.4
2023-04-04T03:24:02.988Z,74.4
2023-04-04T03:27:02.979Z,74.4
2023-04-04T03:30:03.061Z,74.4
2023-04-04T03:33:03.034Z,74.4
2023-04-04T03:36:03.113Z,74.4
2023-04-04T03:39:03.027Z,74.7
2023-04-04T03:42:03.000Z,74.7
2023-04-04T03:45:03.020Z,74.7
2023-04-04T03:48:03.166Z,74.7
2023-04-04T03:51:03.773Z,74.7
2023-04-04T03:54:02.997Z,74.7
2023-04-04T03:57:02.969Z,74.7
2023-04-04T04:00:03.101Z,74.7
2023-04-04T04:03:03.286Z,74.7
2023-04-04T04:06:03.008Z,74.7
2023-04-04T04:09:02.999Z,74.7
2023-04-04T04:12:03.015Z,74.7
2023-04-04T04:15:03.057Z,74.7
2023-04-04T04:18:03.156Z,74.7
2023-04-04T04:21:02.996Z,74.7
2023-04-04T04:24:02.961Z,74.7
2023-04-04T04:27:03.049Z,74.7
2023-04-04T04:30:03.030Z,75.1
2023-04-04T04:33:03.139Z,75.1
2023-04-04T04:36:04.398Z,75.1
2023-04-04T04:39:03.102Z,75.1
2023-04-04T04:42:03.006Z,75.1
2023-04-04T04:45:03.184Z,75.1
2023-04-04T04:48:03.226Z,75.1
2023-04-04T04:51:03.067Z,75.1
2023-04-04T04:54:03.014Z,75.1
2023-04-04T04:57:03.027Z,75.1
2023-04-04T05:00:03.106Z,75.1
2023-04-04T05:03:03.211Z,75.1
2023-04-04T05:06:02.994Z,77
2023-04-04T05:09:03.064Z,77
2023-04-04T05:12:03.048Z,77
2023-04-04T05:15:03.068Z,77
2023-04-04T05:18:03.209Z,77
2023-04-04T05:21:03.047Z,77
2023-04-04T05:24:03.045Z,77
2023-04-04T05:27:03.033Z,77
2023-04-04T05:30:03.258Z,77
2023-04-04T05:33:03.222Z,77
2023-04-04T05:36:03.359Z,77
2023-04-04T05:39:03.073Z,77
2023-04-04T05:42:03.136Z,77
2023-04-04T05:45:03.042Z,77
2023-04-04T05:48:03.139Z,80.5
2023-04-04T05:51:03.023Z,80.5
2023-04-04T05:54:03.015Z,80.5
2023-04-04T05:57:03.075Z,80.5
2023-04-04T06:00:03.185Z,80.5
2023-04-04T06:03:03.488Z,80.5
2023-04-04T06:06:03.207Z,80.5
2023-04-04T06:09:02.998Z,80.5
2023-04-04T06:12:03.076Z,80.5
2023-04-04T06:15:03.063Z,80.5
2023-04-04T06:18:03.206Z,80.5
2023-04-04T06:21:03.037Z,81.2
2023-04-04T06:24:03.054Z,81.2
2023-04-04T06:27:03.124Z,81.2
2023-04-04T06:30:03.097Z,81.2
2023-04-04T06:33:03.145Z,81.2
2023-04-04T06:36:03.149Z,81.2
2023-04-04T06:39:03.058Z,81.2
2023-04-04T06:42:03.091Z,81.2
2023-04-04T06:45:03.125Z,81.2
2023-04-04T06:48:03.214Z,82.8
2023-04-04T06:51:03.048Z,82.8
2023-04-04T06:54:03.064Z,82.8
2023-04-04T06:57:03.038Z,82.8
2023-04-04T07:00:03.524Z,82.8
2023-04-04T07:03:03.329Z,82.8
2023-04-04T07:06:03.165Z,82.8
2023-04-04T07:09:03.170Z,83.3
2023-04-04T07:12:03.116Z,83.3
2023-04-04T07:15:03.018Z,83.3
2023-04-04T07:18:03.177Z,83.3
2023-04-04T07:21:03.069Z,82.5
2023-04-04T07:24:03.021Z,82.5
2023-04-04T07:27:03.069Z,82.5
2023-04-04T07:30:03.077Z,82.5
2023-04-04T07:33:03.205Z,82.5
2023-04-04T07:36:03.187Z,80.7
2023-04-04T07:39:02.963Z,80.7
2023-04-04T07:42:03.033Z,80.7
2023-04-04T07:45:03.106Z,80.7
2023-04-04T07:48:03.138Z,79.8
2023-04-04T07:51:03.080Z,79.8
2023-04-04T07:54:03.061Z,79.8
2023-04-04T07:57:04.087Z,79.8
2023-04-04T08:00:03.171Z,79.3
2023-04-04T08:03:03.397Z,79.3
2023-04-04T08:06:03.054Z,79.3
2023-04-04T08:09:03.006Z,79.3
2023-04-04T08:12:03.075Z,79.3
2023-04-04T08:15:02.989Z,76.7
2023-04-04T08:18:03.345Z,76.7
2023-04-04T08:21:03.014Z,76.7
2023-04-04T08:24:03.062Z,76.7
2023-04-04T08:27:08.309Z,76.7
2023-04-04T08:30:03.115Z,76.7
2023-04-04T08:33:05.656Z,76.7
2023-04-04T08:36:03.166Z,75.9
2023-04-04T08:39:03.011Z,75.9
2023-04-04T08:42:03.104Z,75.9
2023-04-04T08:45:03.050Z,75.9
2023-04-04T08:48:03.216Z,75.9
2023-04-04T08:51:03.085Z,75.1
2023-04-04T08:54:03.090Z,75.1
2023-04-04T08:57:03.019Z,75.1
2023-04-04T09:00:03.430Z,75.1
2023-04-04T09:03:03.263Z,72.5
2023-04-04T09:06:03.036Z,72.5
2023-04-04T09:09:03.114Z,72.5
2023-04-04T09:12:03.238Z,72.5
2023-04-04T09:15:03.287Z,66.4
2023-04-04T09:18:03.284Z,66.4
2023-04-04T09:21:03.104Z,66.4
2023-04-04T09:24:03.245Z,66.4
2023-04-04T09:27:03.008Z,62.7
2023-04-04T09:30:06.842Z,62.7
2023-04-04T09:33:03.292Z,62.7
2023-04-04T09:36:03.218Z,62.7
2023-04-04T09:39:03.219Z,62.7
2023-04-04T09:42:03.044Z,62.7
2023-04-04T09:45:03.026Z,62.7
2023-04-04T09:48:03.159Z,62.7
2023-04-04T09:51:03.052Z,62.7
2023-04-04T09:54:03.282Z,62.7
2023-04-04T09:57:03.050Z,62.7
2023-04-04T10:00:03.275Z,62.7
2023-04-04T10:03:03.113Z,62.7
2023-04-04T10:06:04.884Z,62.7
2023-04-04T10:09:03.026Z,62.7
2023-04-04T10:12:03.083Z,62.7
2023-04-04T10:15:03.060Z,62.3
2023-04-04T10:18:03.392Z,62.3
2023-04-04T10:21:15.531Z,62.3
2023-04-04T10:24:03.035Z,62.3
2023-04-04T10:27:03.026Z,62.3
2023-04-04T10:30:03.264Z,62.3
2023-04-04T10:33:03.162Z,62.3
2023-04-04T10:36:03.228Z,62.3
2023-04-04T10:39:03.154Z,62.3
2023-04-04T10:42:03.084Z,62.9
2023-04-04T10:45:22.541Z,62.9
2023-04-04T10:48:03.305Z,62.9
2023-04-04T10:51:03.005Z,62.9
2023-04-04T10:54:03.138Z,62.9
2023-04-04T10:57:03.318Z,62.9
2023-04-04T11:00:03.463Z,62.9
2023-04-04T11:03:03.319Z,57.8
2023-04-04T11:06:03.000Z,57.8
2023-04-04T11:09:03.030Z,57.8
2023-04-04T11:12:03.083Z,57.8
2023-04-04T11:15:03.052Z,57.8
2023-04-04T11:18:07.847Z,59.7
2023-04-04T11:21:03.046Z,59.7
2023-04-04T11:24:03.039Z,59.7
2023-04-04T11:27:03.066Z,59.7
2023-04-04T11:30:03.058Z,59.7
2023-04-04T11:36:03.152Z,59.7
2023-04-04T11:39:03.013Z,59.7
2023-04-04T11:42:03.144Z,57.9
2023-04-04T11:45:03.029Z,57.9
2023-04-04T11:48:03.102Z,57.9
2023-04-04T11:51:03.157Z,57.9
2023-04-04T11:54:03.025Z,57.9
2023-04-04T11:57:02.993Z,57.9
2023-04-04T12:00:03.234Z,57.9
2023-04-04T12:03:03.262Z,57.9
2023-04-04T12:06:03.324Z,57.1
2023-04-04T12:09:03.072Z,57.1
2023-04-04T12:12:03.037Z,57.1
2023-04-04T12:15:19.949Z,57.1
2023-04-04T12:18:03.147Z,57.1
2023-04-04T12:21:03.025Z,57.1
2023-04-04T12:24:03.006Z,57.1
2023-04-04T12:27:03.054Z,57.1
2023-04-04T12:30:03.150Z,56.6
2023-04-04T12:33:03.097Z,56.6
2023-04-04T12:36:03.065Z,56.6
2023-04-04T12:39:03.020Z,56.6
2023-04-04T12:42:03.086Z,56.6
2023-04-04T12:45:03.054Z,54.5
2023-04-04T12:48:03.283Z,54.5
2023-04-04T12:51:03.048Z,54.5
2023-04-04T12:54:03.177Z,54.5
2023-04-04T12:57:03.010Z,54.6
2023-04-04T13:00:03.160Z,54.6
2023-04-04T13:03:03.108Z,54.6
2023-04-04T13:06:03.304Z,54.6
2023-04-04T13:09:03.097Z,54.6
2023-04-04T13:12:02.999Z,54.6
2023-04-04T13:15:03.111Z,54.6
2023-04-04T13:18:03.142Z,52.8
2023-04-04T13:21:03.054Z,52.8
2023-04-04T13:24:03.280Z,52.8
2023-04-04T13:27:03.080Z,52.8
2023-04-04T13:30:03.085Z,52.9
2023-04-04T13:33:03.397Z,52.9
2023-04-04T13:36:03.094Z,52.9
2023-04-04T13:39:02.981Z,52.9
2023-04-04T13:42:03.077Z,55.5
2023-04-04T13:45:03.032Z,55.5
2023-04-04T13:48:03.275Z,55.5
2023-04-04T13:51:03.094Z,55.5
2023-04-04T13:54:03.070Z,55.5
2023-04-04T13:57:03.076Z,55.5
2023-04-04T14:00:03.152Z,49.5
2023-04-04T14:03:03.110Z,49.5
2023-04-04T14:06:13.202Z,49.5
2023-04-04T14:09:03.067Z,49.5
2023-04-04T14:12:03.122Z,48.7
2023-04-04T14:15:03.049Z,48.7
2023-04-04T14:18:03.149Z,48.7
2023-04-04T14:21:03.141Z,48.7
2023-04-04T14:24:03.104Z,48.7
2023-04-04T14:27:03.080Z,48.7
2023-04-04T14:30:03.042Z,48.7
2023-04-04T14:33:03.305Z,48.7
2023-04-04T14:36:03.023Z,48.7
2023-04-04T14:39:03.147Z,48.7
2023-04-04T14:42:03.025Z,48.7
2023-04-04T14:45:03.063Z,48.7
2023-04-04T14:48:03.173Z,48.7
2023-04-04T14:51:03.015Z,48.7
2023-04-04T14:54:03.196Z,48.7
2023-04-04T14:57:03.084Z,48.7
2023-04-04T15:00:03.106Z,48.7
2023-04-04T15:03:04.246Z,48.7
2023-04-04T15:06:03.098Z,48.7
2023-04-04T15:09:04.175Z,50.2
2023-04-04T15:12:03.077Z,50.2
2023-04-04T15:15:03.092Z,50.2
2023-04-04T15:18:03.218Z,50.2
2023-04-04T15:21:03.042Z,50.2
2023-04-04T15:24:03.052Z,50.2
2023-04-04T15:27:03.044Z,50.2
2023-04-04T15:30:03.126Z,50.2
2023-04-04T15:33:03.247Z,50.2
2023-04-04T15:36:03.050Z,50.2
2023-04-04T15:39:03.043Z,50.2
2023-04-04T15:42:03.018Z,50.2
2023-04-04T15:45:03.107Z,50.2
2023-04-04T15:48:03.148Z,50.2
2023-04-04T15:51:03.053Z,50.2
2023-04-04T15:54:03.037Z,50.2
2023-04-04T15:57:03.016Z,50.2
2023-04-04T16:00:03.147Z,50.2
2023-04-04T16:03:03.228Z,49.2
2023-04-04T16:06:03.056Z,49.2
2023-04-04T16:09:03.070Z,49.2
2023-04-04T16:12:02.996Z,49.2
2023-04-04T16:15:03.136Z,49.2
2023-04-04T16:18:03.193Z,49.2
2023-04-04T16:21:02.983Z,49.2
2023-04-04T16:24:03.030Z,49.2
2023-04-04T16:27:03.056Z,49.2
2023-04-04T16:30:03.072Z,49.2
2023-04-04T16:33:03.181Z,49.2
2023-04-04T16:36:03.004Z,48.9
2023-04-04T16:39:03.097Z,48.9
2023-04-04T16:42:03.026Z,48.9
2023-04-04T16:45:03.114Z,48.9
2023-04-04T16:48:03.181Z,48.9
2023-04-04T16:51:03.022Z,48.9
2023-04-04T16:54:03.055Z,48.9
2023-04-04T16:57:03.042Z,48.9
2023-04-04T17:00:03.062Z,48.9
2023-04-04T17:03:03.144Z,48.9
2023-04-04T17:06:03.108Z,48.9
2023-04-04T17:09:03.017Z,48.9
2023-04-04T17:12:03.035Z,48.9
2023-04-04T17:15:03.070Z,48.9
2023-04-04T17:18:03.156Z,48.9
2023-04-04T17:21:03.156Z,48.9
2023-04-04T17:24:03.049Z,49.9
2023-04-04T17:27:03.025Z,49.9
2023-04-04T17:30:03.072Z,49.9
2023-04-04T17:33:03.170Z,49.9
2023-04-04T17:36:03.010Z,49.9
2023-04-04T17:39:03.009Z,49.9
2023-04-04T17:42:03.027Z,49.9
2023-04-04T17:45:03.128Z,49.9
2023-04-04T17:48:03.164Z,49.9
2023-04-04T17:51:03.023Z,49.9
2023-04-04T17:54:03.033Z,49.9
2023-04-04T17:57:03.007Z,49.9
2023-04-04T18:00:03.053Z,49.9
2023-04-04T18:03:03.242Z,54.6
2023-04-04T18:06:03.044Z,54.6
2023-04-04T18:09:03.011Z,54.6
2023-04-04T18:12:03.153Z,54.6
2023-04-04T18:15:03.030Z,55.4
2023-04-04T18:18:03.099Z,55.4
2023-04-04T18:21:02.996Z,55.4
2023-04-04T18:24:02.976Z,55.4
2023-04-04T18:27:03.050Z,55.4
2023-04-04T18:30:02.986Z,55.4
2023-04-04T18:33:03.133Z,55.4
2023-04-04T18:36:03.042Z,55.4
2023-04-04T18:39:03.027Z,55.4
2023-04-04T18:42:03.077Z,55.4
2023-04-04T18:45:03.023Z,55.4
2023-04-04T18:48:03.123Z,55.4
2023-04-04T18:51:03.013Z,55.4
2023-04-04T18:54:03.036Z,55.4
2023-04-04T18:57:02.994Z,55.4
2023-04-04T19:00:03.070Z,55.4
2023-04-04T19:03:03.242Z,55.4
2023-04-04T19:06:03.013Z,59
2023-04-04T19:09:03.003Z,59
2023-04-04T19:12:05.663Z,59
2023-04-04T19:15:02.967Z,59
2023-04-04T19:18:03.166Z,59
2023-04-04T19:21:02.971Z,59
2023-04-04T19:24:02.994Z,59
2023-04-04T19:27:03.053Z,59
2023-04-04T19:30:03.056Z,59
2023-04-04T19:33:03.134Z,59
2023-04-04T19:36:03.233Z,59
2023-04-04T19:39:03.011Z,59
2023-04-04T19:42:03.029Z,59
2023-04-04T19:45:03.009Z,59
2023-04-04T19:48:03.089Z,59
2023-04-04T19:51:02.979Z,59
2023-04-04T19:54:02.970Z,59
2023-04-04T19:57:03.044Z,59
2023-04-04T20:00:03.093Z,59
2023-04-04T20:03:03.304Z,59
2023-04-04T20:06:03.003Z,59
2023-04-04T20:09:02.995Z,62.4
2023-04-04T20:12:02.983Z,62.4
2023-04-04T20:15:02.965Z,62.4
2023-04-04T20:18:03.138Z,62.4
2023-04-04T20:21:03.164Z,62.4
2023-04-04T20:24:03.005Z,62.4
2023-04-04T20:27:02.986Z,62.4
2023-04-04T20:30:03.037Z,62.4
2023-04-04T20:33:03.118Z,62.4
2023-04-04T20:36:03.087Z,62.4
2023-04-04T20:39:03.025Z,62.4
2023-04-04T20:42:03.002Z,64.2
2023-04-04T20:45:03.265Z,64.2
2023-04-04T20:48:04.425Z,64.2
2023-04-04T20:51:02.995Z,64.2
2023-04-04T20:54:03.018Z,64.2
2023-04-04T20:57:02.999Z,64.2
2023-04-04T21:00:03.124Z,64.2
2023-04-04T21:03:03.079Z,64.9
2023-04-04T21:06:02.970Z,64.9
2023-04-04T21:09:02.968Z,64.9
2023-04-04T21:12:03.045Z,64.9
2023-04-04T21:15:03.030Z,64.9
2023-04-04T21:18:03.085Z,64.9
2023-04-04T21:21:02.996Z,66.4
2023-04-04T21:24:02.997Z,66.4
2023-04-04T21:27:02.991Z,66.4
2023-04-04T21:30:03.140Z,66.4
2023-04-04T21:33:03.175Z,66.4
2023-04-04T21:36:03.133Z,66.4
2023-04-04T21:39:03.046Z,66.4
2023-04-04T21:42:04.157Z,66.4
2023-04-04T21:45:03.001Z,68.2
2023-04-04T21:48:03.122Z,68.2
2023-04-04T21:51:03.014Z,68.2
2023-04-04T21:54:02.976Z,68.2
2023-04-04T21:57:02.976Z,68.2
2023-04-04T22:00:04.138Z,68.2
2023-04-04T22:03:03.091Z,68.2
2023-04-04T22:06:03.010Z,70
2023-04-04T22:09:02.986Z,70
2023-04-04T22:12:03.028Z,70
2023-04-04T22:15:02.973Z,70
2023-04-04T22:18:03.135Z,70
2023-04-04T22:21:02.964Z,70
2023-04-04T22:24:03.372Z,70
2023-04-04T22:27:02.960Z,70
2023-04-04T22:30:03.015Z,70
2023-04-04T22:33:03.084Z,70
2023-04-04T22:36:03.072Z,70
2023-04-04T22:39:03.008Z,70.5
2023-04-04T22:42:03.042Z,70.5
2023-04-04T22:45:03.018Z,70.5
2023-04-04T22:48:03.104Z,70.5
2023-04-04T22:51:03.006Z,70.5
2023-04-04T22:54:03.254Z,70.5
2023-04-04T22:57:02.998Z,70.5
2023-04-04T23:00:03.046Z,70.5
2023-04-04T23:03:03.097Z,70.5
2023-04-04T23:06:03.039Z,70.5
2023-04-04T23:09:05.347Z,70.5
2023-04-04T23:12:02.950Z,72.2
2023-04-04T23:15:02.981Z,72.2
2023-04-04T23:18:03.123Z,72.2
2023-04-04T23:21:03.003Z,72.2
2023-04-04T23:24:03.034Z,72.2
2023-04-04T23:27:02.999Z,72.2
2023-04-04T23:30:03.050Z,72.2
2023-04-04T23:33:03.107Z,72.2
2023-04-04T23:36:03.148Z,72.2
2023-04-04T23:39:03.045Z,72.2
2023-04-04T23:42:03.019Z,72.2
2023-04-04T23:45:03.008Z,72.2
2023-04-04T23:48:03.167Z,72.2
2023-04-04T23:51:02.955Z,72.2
2023-04-04T23:54:03.017Z,72.2
2023-04-04T23:57:03.025Z,72.2
